Time;durP1;ratioP1;P1;durP2;ratioP2;P2;SDS_P1;SDS_P2;PMS_P1;PMS_P2;Temp;Humidity;BMP_temperature;BMP_pressure;BME280_temperature;BME280_humidity;BME280_pressure;Samples;Min_cycle;Max_cycle;Signal;HPM_P1;HPM_P2
2023/08/09 00:01:58;;;;;;;2.50;1.70;;;;;;;;;;5112217;28;20700;-77
2023/08/09 00:04:25;;;;;;;1.40;1.30;;;;;;;;;;5094133;28;20621;-77
2023/08/09 00:06:52;;;;;;;1.53;1.43;;;;;;;;;;5112282;28;20202;-77
2023/08/09 00:09:20;;;;;;;1.47;1.37;;;;;;;;;;5112407;28;20753;-77
2023/08/09 00:11:47;;;;;;;1.80;1.70;;;;;;;;;;5111603;28;20203;-77
2023/08/09 00:14:14;;;;;;;1.47;1.37;;;;;;;;;;5094893;28;20540;-77
2023/08/09 00:16:44;;;;;;;1.30;1.30;;;;;;;;;;5094041;28;20217;-77
2023/08/09 00:19:12;;;;;;;2.43;1.40;;;;;;;;;;5093614;28;20203;-77
2023/08/09 00:21:38;;;;;;;1.47;1.37;;;;;;;;;;5112305;28;20565;-77
2023/08/09 00:24:05;;;;;;;1.43;1.40;;;;;;;;;;5112745;28;20199;-77
2023/08/09 00:26:32;;;;;;;1.73;1.50;;;;;;;;;;5094267;28;20199;-77
2023/08/09 00:29:00;;;;;;;1.67;1.57;;;;;;;;;;5112033;28;20202;-77
2023/08/09 00:31:26;;;;;;;1.40;1.30;;;;;;;;;;5094052;28;20196;-77
2023/08/09 00:33:55;;;;;;;1.90;1.80;;;;;;;;;;5112481;28;20201;-77
2023/08/09 00:36:22;;;;;;;7.70;1.93;;;;;;;;;;5077116;28;20226;-77
2023/08/09 00:38:49;;;;;;;2.17;1.53;;;;;;;;;;5094123;28;20271;-77
2023/08/09 00:41:16;;;;;;;3.23;1.60;;;;;;;;;;5112467;28;20210;-77
2023/08/09 00:43:43;;;;;;;1.80;1.70;;;;;;;;;;5093736;28;20285;-77
2023/08/09 00:46:10;;;;;;;1.60;1.50;;;;;;;;;;5113063;28;20198;-77
2023/08/09 00:48:38;;;;;;;1.63;1.53;;;;;;;;;;5111854;28;20707;-77
2023/08/09 00:51:06;;;;;;;2.10;1.60;;;;;;;;;;5077038;28;20544;-77
2023/08/09 00:53:34;;;;;;;1.90;1.80;;;;;;;;;;5111788;28;20225;-77
2023/08/09 00:56:01;;;;;;;2.47;1.63;;;;;;;;;;5076928;28;20266;-77
2023/08/09 00:58:28;;;;;;;1.67;1.57;;;;;;;;;;5077231;28;20206;-77
2023/08/09 01:00:55;;;;;;;2.00;1.90;;;;;;;;;;5077090;28;20209;-77
2023/08/09 01:03:23;;;;;;;2.37;1.60;;;;;;;;;;5104229;28;20214;-78
2023/08/09 01:05:52;;;;;;;1.60;1.50;;;;;;;;;;5091407;28;20195;-78
2023/08/09 01:08:27;;;;;;;13.63;2.00;;;;;;;;;;5091443;28;20241;-77
2023/08/09 01:10:58;;;;;;;1.70;1.60;;;;;;;;;;5092035;28;20219;-77
2023/08/09 01:13:27;;;;;;;2.00;1.80;;;;;;;;;;5057420;28;20265;-77
2023/08/09 01:15:54;;;;;;;1.60;1.50;;;;;;;;;;5091101;28;20705;-77
2023/08/09 01:18:24;;;;;;;1.87;1.77;;;;;;;;;;5091291;28;20199;-77
2023/08/09 01:20:51;;;;;;;2.80;1.60;;;;;;;;;;5073579;28;20199;-77
2023/08/09 01:23:21;;;;;;;2.73;1.97;;;;;;;;;;5074989;28;20234;-77
2023/08/09 01:25:49;;;;;;;1.67;1.57;;;;;;;;;;5094566;28;20263;-77
2023/08/09 01:28:17;;;;;;;2.03;1.73;;;;;;;;;;5094822;28;20203;-78
2023/08/09 01:30:45;;;;;;;2.97;1.80;;;;;;;;;;5077081;28;20207;-78
2023/08/09 01:33:13;;;;;;;1.67;1.57;;;;;;;;;;5094612;28;20577;-78
2023/08/09 01:35:43;;;;;;;2.00;1.90;;;;;;;;;;5076853;28;20232;-78
2023/08/09 01:38:16;;;;;;;2.10;2.00;;;;;;;;;;5094680;28;20204;-78
2023/08/09 01:40:44;;;;;;;2.00;1.90;;;;;;;;;;5077060;28;20568;-78
2023/08/09 01:43:13;;;;;;;2.60;2.40;;;;;;;;;;5077171;28;20203;-77
2023/08/09 01:45:41;;;;;;;2.30;2.10;;;;;;;;;;5095234;28;20199;-78
2023/08/09 01:48:08;;;;;;;2.07;1.90;;;;;;;;;;5094690;28;20200;-77
2023/08/09 01:50:36;;;;;;;1.90;1.80;;;;;;;;;;5094095;28;20229;-77
2023/08/09 01:53:03;;;;;;;2.53;2.33;;;;;;;;;;5077179;28;20249;-78
2023/08/09 01:55:31;;;;;;;2.17;1.90;;;;;;;;;;5059872;28;20578;-77
2023/08/09 01:57:58;;;;;;;2.10;1.73;;;;;;;;;;5094990;28;20198;-77
2023/08/09 02:00:27;;;;;;;2.47;2.37;;;;;;;;;;5076322;28;20234;-78
2023/08/09 02:02:54;;;;;;;2.50;2.30;;;;;;;;;;5076480;28;20287;-78
2023/08/09 02:05:22;;;;;;;2.17;1.97;;;;;;;;;;5077135;28;20199;-78
2023/08/09 02:07:50;;;;;;;2.47;2.30;;;;;;;;;;5059819;28;20204;-78
2023/08/09 02:10:17;;;;;;;2.47;1.93;;;;;;;;;;5059619;28;20208;-78
2023/08/09 02:12:47;;;;;;;2.40;2.23;;;;;;;;;;5059624;28;20609;-77
2023/08/09 02:15:15;;;;;;;2.37;2.27;;;;;;;;;;5093840;28;20307;-77
2023/08/09 02:17:44;;;;;;;2.10;2.00;;;;;;;;;;5093924;28;20207;-76
2023/08/09 02:20:12;;;;;;;2.20;2.10;;;;;;;;;;5075891;28;20276;-77
2023/08/09 02:22:40;;;;;;;2.50;2.30;;;;;;;;;;5060111;28;20211;-77
2023/08/09 02:25:10;;;;;;;2.70;2.53;;;;;;;;;;5075427;28;20587;-77
2023/08/09 02:27:37;;;;;;;2.43;2.23;;;;;;;;;;5060113;28;20622;-77
2023/08/09 02:30:06;;;;;;;1.97;1.87;;;;;;;;;;5093528;28;20197;-77
2023/08/09 02:32:33;;;;;;;2.40;2.20;;;;;;;;;;5076551;28;20266;-77
2023/08/09 02:35:02;;;;;;;2.20;2.00;;;;;;;;;;5075047;28;20224;-77
2023/08/09 02:37:34;;;;;;;2.13;1.90;;;;;;;;;;5093474;28;20205;-77
2023/08/09 02:40:01;;;;;;;1.90;1.80;;;;;;;;;;5094176;28;20665;-77
2023/08/09 02:42:28;;;;;;;2.30;2.10;;;;;;;;;;5075470;28;20669;-77
2023/08/09 02:44:55;;;;;;;2.13;2.03;;;;;;;;;;5093325;28;20675;-77
2023/08/09 02:47:23;;;;;;;2.30;2.20;;;;;;;;;;5076635;28;20204;-77
2023/08/09 02:49:50;;;;;;;2.33;2.17;;;;;;;;;;5093173;28;20209;-77
2023/08/09 02:52:18;;;;;;;1.80;1.70;;;;;;;;;;5075694;28;20212;-77
2023/08/09 02:54:45;;;;;;;2.30;2.20;;;;;;;;;;5093318;28;20197;-77
2023/08/09 02:57:12;;;;;;;2.03;1.93;;;;;;;;;;5092880;28;20212;-77
2023/08/09 02:59:39;;;;;;;2.13;2.03;;;;;;;;;;5075360;28;20702;-74
2023/08/09 03:02:06;;;;;;;2.37;2.17;;;;;;;;;;5074939;28;20684;-74
2023/08/09 03:04:34;;;;;;;2.00;1.90;;;;;;;;;;5058907;28;20205;-74
2023/08/09 03:07:01;;;;;;;1.83;1.73;;;;;;;;;;5058481;28;20200;-74
2023/08/09 03:09:29;;;;;;;2.20;2.10;;;;;;;;;;5092876;28;20205;-75
2023/08/09 03:11:56;;;;;;;1.77;1.67;;;;;;;;;;5093207;28;20632;-75
2023/08/09 03:14:23;;;;;;;2.10;2.00;;;;;;;;;;5093149;28;20309;-76
2023/08/09 03:16:50;;;;;;;2.40;2.23;;;;;;;;;;5092563;28;20228;-77
2023/08/09 03:19:17;;;;;;;2.20;1.80;;;;;;;;;;5092733;28;20207;-77
2023/08/09 03:21:44;;;;;;;1.97;1.87;;;;;;;;;;5092923;28;20197;-77
2023/08/09 03:24:11;;;;;;;1.90;1.80;;;;;;;;;;5092941;28;20664;-77
2023/08/09 03:26:49;;;;;;;2.00;1.90;;;;;;;;;;5093677;28;20202;-76
2023/08/09 03:29:16;;;;;;;1.83;1.73;;;;;;;;;;5093650;28;20198;-76
2023/08/09 03:31:43;;;;;;;1.80;1.70;;;;;;;;;;5092459;28;20668;-76
2023/08/09 03:34:10;;;;;;;2.33;1.80;;;;;;;;;;5093348;28;20201;-76
2023/08/09 03:36:36;;;;;;;2.07;1.93;;;;;;;;;;5092457;28;20223;-76
2023/08/09 03:39:03;;;;;;;2.13;2.03;;;;;;;;;;5092618;28;20199;-76
2023/08/09 03:41:30;;;;;;;3.60;2.00;;;;;;;;;;5092985;28;20206;-77
2023/08/09 03:43:58;;;;;;;1.73;1.63;;;;;;;;;;5092996;28;20193;-77
2023/08/09 03:46:25;;;;;;;1.83;1.67;;;;;;;;;;5092114;28;20202;-76
2023/08/09 03:48:52;;;;;;;1.70;1.60;;;;;;;;;;5092351;28;20202;-76
2023/08/09 03:51:19;;;;;;;2.30;2.10;;;;;;;;;;5092485;28;20194;-77
2023/08/09 03:53:46;;;;;;;3.67;1.70;;;;;;;;;;5092681;28;20646;-77
2023/08/09 03:56:12;;;;;;;2.43;1.47;;;;;;;;;;5108013;28;20222;-77
2023/08/09 03:58:39;;;;;;;1.93;1.83;;;;;;;;;;5112565;28;20198;-76
2023/08/09 04:01:08;;;;;;;1.90;1.80;;;;;;;;;;5110853;28;20200;-77
2023/08/09 04:03:34;;;;;;;1.77;1.67;;;;;;;;;;5102317;28;20243;-77
2023/08/09 04:06:02;;;;;;;1.83;1.73;;;;;;;;;;5091260;28;20202;-77
2023/08/09 04:08:30;;;;;;;2.53;1.60;;;;;;;;;;5111243;28;20254;-77
2023/08/09 04:10:57;;;;;;;1.70;1.60;;;;;;;;;;5092478;28;20619;-77
2023/08/09 04:13:24;;;;;;;2.27;1.90;;;;;;;;;;5112036;28;20211;-77
2023/08/09 04:15:50;;;;;;;2.10;2.00;;;;;;;;;;5102429;28;20204;-77
2023/08/09 04:18:19;;;;;;;1.80;1.70;;;;;;;;;;5091620;28;20198;-77
2023/08/09 04:20:46;;;;;;;1.97;1.87;;;;;;;;;;5096070;28;20197;-77
2023/08/09 04:23:13;;;;;;;3.73;1.90;;;;;;;;;;5111688;28;20198;-79
2023/08/09 04:25:40;;;;;;;2.27;2.07;;;;;;;;;;5111649;28;20198;-77
2023/08/09 04:28:08;;;;;;;2.00;1.90;;;;;;;;;;5093307;28;20678;-78
2023/08/09 04:30:35;;;;;;;1.90;1.77;;;;;;;;;;5111766;28;20202;-78
2023/08/09 04:33:03;;;;;;;2.10;2.00;;;;;;;;;;5110792;28;20293;-77
2023/08/09 04:35:35;;;;;;;1.70;1.60;;;;;;;;;;5107578;28;20191;-77
2023/08/09 04:38:03;;;;;;;1.80;1.70;;;;;;;;;;5090929;28;20694;-77
2023/08/09 04:40:30;;;;;;;2.47;2.27;;;;;;;;;;5099697;28;20209;-77
2023/08/09 04:42:57;;;;;;;2.30;2.13;;;;;;;;;;5107375;28;20193;-77
2023/08/09 04:45:25;;;;;;;1.93;1.80;;;;;;;;;;5113005;28;20199;-77
2023/08/09 04:47:52;;;;;;;1.60;1.50;;;;;;;;;;5112186;28;20258;-77
2023/08/09 04:50:21;;;;;;;2.17;1.97;;;;;;;;;;5111958;28;20614;-77
2023/08/09 04:52:49;;;;;;;1.90;1.70;;;;;;;;;;5100741;28;20223;-77
2023/08/09 04:55:16;;;;;;;1.57;1.40;;;;;;;;;;5099147;28;20200;-77
2023/08/09 04:57:43;;;;;;;1.97;1.73;;;;;;;;;;5103193;28;20214;-77
2023/08/09 05:00:11;;;;;;;1.77;1.67;;;;;;;;;;5106566;28;20221;-77
2023/08/09 05:02:38;;;;;;;1.63;1.53;;;;;;;;;;5096042;28;20226;-77
2023/08/09 05:05:06;;;;;;;1.47;1.37;;;;;;;;;;5094108;28;20208;-77
2023/08/09 05:07:35;;;;;;;1.50;1.40;;;;;;;;;;5108541;28;20730;-77
2023/08/09 05:10:04;;;;;;;4.23;1.40;;;;;;;;;;5107386;28;20569;-77
2023/08/09 05:12:31;;;;;;;1.67;1.57;;;;;;;;;;5114991;28;20226;-77
2023/08/09 05:14:58;;;;;;;1.50;1.40;;;;;;;;;;5101447;28;20210;-77
2023/08/09 05:17:25;;;;;;;1.40;1.30;;;;;;;;;;5107843;28;20228;-77
2023/08/09 05:19:52;;;;;;;1.23;1.20;;;;;;;;;;5094274;28;20278;-78
2023/08/09 05:22:19;;;;;;;1.73;1.60;;;;;;;;;;5095369;28;20670;-77
2023/08/09 05:24:46;;;;;;;1.30;1.20;;;;;;;;;;5114591;28;20248;-77
2023/08/09 05:27:14;;;;;;;1.53;1.40;;;;;;;;;;5101573;28;20208;-77
2023/08/09 05:29:41;;;;;;;1.20;1.10;;;;;;;;;;5108661;28;20200;-77
2023/08/09 05:32:07;;;;;;;1.90;1.70;;;;;;;;;;5107505;28;20198;-77
2023/08/09 05:34:34;;;;;;;1.23;1.23;;;;;;;;;;5114583;28;20207;-77
2023/08/09 05:37:01;;;;;;;1.50;1.40;;;;;;;;;;5114476;28;20227;-77
2023/08/09 05:39:28;;;;;;;1.60;1.50;;;;;;;;;;5114062;28;20692;-77
2023/08/09 05:41:54;;;;;;;1.40;1.30;;;;;;;;;;5098549;28;20200;-77
2023/08/09 05:44:22;;;;;;;1.70;1.60;;;;;;;;;;5103559;28;20206;-77
2023/08/09 05:46:49;;;;;;;2.10;1.53;;;;;;;;;;5114382;28;20543;-77
2023/08/09 05:49:16;;;;;;;1.40;1.30;;;;;;;;;;5113733;28;20219;-77
2023/08/09 05:51:43;;;;;;;3.03;1.10;;;;;;;;;;5101507;28;20220;-77
2023/08/09 05:54:10;;;;;;;1.30;1.20;;;;;;;;;;5105086;28;20304;-77
2023/08/09 05:56:37;;;;;;;1.13;1.13;;;;;;;;;;5093752;28;20217;-78
2023/08/09 05:59:05;;;;;;;1.53;1.30;;;;;;;;;;5103113;28;20202;-77
2023/08/09 06:01:33;;;;;;;1.43;1.33;;;;;;;;;;5098595;28;20189;-77
2023/08/09 06:04:00;;;;;;;1.13;1.13;;;;;;;;;;5094029;28;20761;-78
2023/08/09 06:06:27;;;;;;;3.40;1.30;;;;;;;;;;5103839;28;20197;-77
2023/08/09 06:08:54;;;;;;;2.60;1.40;;;;;;;;;;5103856;28;20203;-77
2023/08/09 06:11:21;;;;;;;1.30;1.20;;;;;;;;;;5109849;28;20207;-77
2023/08/09 06:13:48;;;;;;;1.60;1.50;;;;;;;;;;5104567;28;20204;-77
2023/08/09 06:16:14;;;;;;;3.13;1.10;;;;;;;;;;5099525;28;20199;-77
2023/08/09 06:18:42;;;;;;;1.10;0.93;;;;;;;;;;5104285;28;20225;-77
2023/08/09 06:21:09;;;;;;;1.37;1.30;;;;;;;;;;5093433;28;20563;-77
2023/08/09 06:23:36;;;;;;;1.10;1.10;;;;;;;;;;5105557;28;20196;-77
2023/08/09 06:26:03;;;;;;;1.30;1.20;;;;;;;;;;5097112;28;20196;-77
2023/08/09 06:28:30;;;;;;;1.20;1.20;;;;;;;;;;5101870;28;20188;-77
2023/08/09 06:30:56;;;;;;;1.10;1.10;;;;;;;;;;5112254;28;20191;-77
2023/08/09 06:33:24;;;;;;;1.20;1.17;;;;;;;;;;5113585;28;20203;-77
2023/08/09 06:35:52;;;;;;;1.90;1.60;;;;;;;;;;5099685;28;20252;-77
2023/08/09 06:38:19;;;;;;;1.03;1.03;;;;;;;;;;5100086;28;20289;-77
2023/08/09 06:40:45;;;;;;;2.40;1.10;;;;;;;;;;5104290;28;20196;-77
2023/08/09 06:43:12;;;;;;;1.00;1.00;;;;;;;;;;5106004;28;20200;-77
2023/08/09 06:45:39;;;;;;;1.07;1.03;;;;;;;;;;5092364;28;20242;-77
2023/08/09 06:48:07;;;;;;;1.10;1.10;;;;;;;;;;5105374;28;20203;-77
2023/08/09 06:50:34;;;;;;;1.40;1.13;;;;;;;;;;5113210;28;20201;-77
2023/08/09 06:53:03;;;;;;;5.67;1.00;;;;;;;;;;5113041;28;20227;-77
2023/08/09 06:55:29;;;;;;;1.47;0.87;;;;;;;;;;5105417;28;20258;-77
2023/08/09 06:57:56;;;;;;;0.93;0.93;;;;;;;;;;5092258;28;20220;-77
2023/08/09 07:00:23;;;;;;;0.97;0.97;;;;;;;;;;5098946;28;20211;-77
2023/08/09 07:02:50;;;;;;;1.37;1.20;;;;;;;;;;5098257;28;20197;-77
2023/08/09 07:05:20;;;;;;;3.17;1.30;;;;;;;;;;5092477;28;20208;-77
2023/08/09 07:07:48;;;;;;;1.10;1.00;;;;;;;;;;5093617;28;20277;-76
2023/08/09 07:10:17;;;;;;;1.30;1.20;;;;;;;;;;5103823;28;20196;-77
2023/08/09 07:12:44;;;;;;;8.00;1.30;;;;;;;;;;5095139;28;20195;-77
2023/08/09 07:15:11;;;;;;;1.10;1.00;;;;;;;;;;5102142;28;20283;-77
2023/08/09 07:17:39;;;;;;;0.90;0.90;;;;;;;;;;5108649;28;20731;-77
2023/08/09 07:20:08;;;;;;;0.90;0.90;;;;;;;;;;5102806;28;20192;-77
2023/08/09 07:22:35;;;;;;;0.80;0.80;;;;;;;;;;5094919;28;20229;-77
2023/08/09 07:25:02;;;;;;;1.40;1.30;;;;;;;;;;5112747;28;20199;-77
2023/08/09 07:27:32;;;;;;;2.07;1.10;;;;;;;;;;5099627;28;20188;-77
2023/08/09 07:29:59;;;;;;;1.00;1.00;;;;;;;;;;5112385;28;20260;-77
2023/08/09 07:32:26;;;;;;;1.03;1.03;;;;;;;;;;5100443;28;20671;-77
2023/08/09 07:34:53;;;;;;;1.30;1.10;;;;;;;;;;5103973;28;20604;-77
2023/08/09 07:37:20;;;;;;;1.80;1.10;;;;;;;;;;5095613;28;20219;-77
2023/08/09 07:39:47;;;;;;;0.70;0.70;;;;;;;;;;5100674;28;20253;-76
2023/08/09 07:42:13;;;;;;;0.87;0.87;;;;;;;;;;5108934;28;20195;-77
2023/08/09 07:44:41;;;;;;;0.77;0.77;;;;;;;;;;5091745;28;20254;-77
2023/08/09 07:47:08;;;;;;;1.60;1.00;;;;;;;;;;5096653;28;20673;-77
2023/08/09 07:49:35;;;;;;;1.43;0.90;;;;;;;;;;5112039;28;20230;-77
2023/08/09 07:52:02;;;;;;;1.40;1.30;;;;;;;;;;5092681;28;20685;-77
2023/08/09 07:54:29;;;;;;;0.70;0.70;;;;;;;;;;5103460;28;20220;-77
2023/08/09 07:56:56;;;;;;;1.03;0.93;;;;;;;;;;5101355;28;20196;-77
2023/08/09 07:59:24;;;;;;;0.93;0.93;;;;;;;;;;5111908;28;20199;-77
2023/08/09 08:01:52;;;;;;;0.90;0.90;;;;;;;;;;5094555;28;20196;-76
2023/08/09 08:04:19;;;;;;;1.10;1.00;;;;;;;;;;5091007;28;20291;-77
2023/08/09 08:06:46;;;;;;;1.03;1.00;;;;;;;;;;5097052;28;20195;-77
2023/08/09 08:09:13;;;;;;;1.90;0.87;;;;;;;;;;5098191;28;20196;-78
2023/08/09 08:11:40;;;;;;;1.20;1.10;;;;;;;;;;5091356;28;20207;-77
2023/08/09 08:14:07;;;;;;;0.73;0.73;;;;;;;;;;5104390;28;20546;-78
2023/08/09 08:16:34;;;;;;;0.90;0.90;;;;;;;;;;5096609;28;20195;-77
2023/08/09 08:19:02;;;;;;;0.83;0.83;;;;;;;;;;5096794;28;20226;-77
2023/08/09 08:21:29;;;;;;;1.10;1.00;;;;;;;;;;5103279;28;20230;-78
2023/08/09 08:23:57;;;;;;;1.10;1.00;;;;;;;;;;5104979;28;20199;-77
2023/08/09 08:26:25;;;;;;;1.00;1.00;;;;;;;;;;5091242;28;20257;-77
2023/08/09 08:28:51;;;;;;;1.00;0.90;;;;;;;;;;5104103;28;20614;-77
2023/08/09 08:31:20;;;;;;;2.43;0.97;;;;;;;;;;5091134;28;20279;-77
2023/08/09 08:33:49;;;;;;;0.70;0.70;;;;;;;;;;5105794;28;20203;-76
2023/08/09 08:36:17;;;;;;;0.90;0.90;;;;;;;;;;5095560;28;20196;-77
2023/08/09 08:38:44;;;;;;;1.00;1.00;;;;;;;;;;5111593;28;20226;-77
2023/08/09 08:41:11;;;;;;;1.30;1.20;;;;;;;;;;5104223;28;20194;-77
2023/08/09 08:43:38;;;;;;;1.00;1.00;;;;;;;;;;5100763;28;20200;-77
2023/08/09 08:46:05;;;;;;;0.87;0.87;;;;;;;;;;5115569;28;20199;-79
2023/08/09 08:48:34;;;;;;;0.90;0.90;;;;;;;;;;5114718;28;20673;-77
2023/08/09 08:51:02;;;;;;;1.13;1.07;;;;;;;;;;5104265;28;20196;-77
2023/08/09 08:53:31;;;;;;;1.27;1.00;;;;;;;;;;5111653;28;20230;-77
2023/08/09 08:55:58;;;;;;;1.10;0.93;;;;;;;;;;5112521;28;20199;-77
2023/08/09 08:58:25;;;;;;;0.93;0.93;;;;;;;;;;5100472;28;20596;-77
2023/08/09 09:00:51;;;;;;;2.00;1.43;;;;;;;;;;5115025;28;20203;-77
2023/08/09 09:03:18;;;;;;;1.20;0.87;;;;;;;;;;5109877;28;20196;-77
2023/08/09 09:05:45;;;;;;;0.90;0.90;;;;;;;;;;5094604;28;20196;-77
2023/08/09 09:08:13;;;;;;;1.53;1.43;;;;;;;;;;5096004;28;20200;-77
2023/08/09 09:10:44;;;;;;;1.00;1.00;;;;;;;;;;5102528;28;20196;-77
2023/08/09 09:13:23;;;;;;;0.83;0.83;;;;;;;;;;5113876;28;20198;-77
2023/08/09 09:15:52;;;;;;;1.27;0.90;;;;;;;;;;5101449;28;20207;-77
2023/08/09 09:18:20;;;;;;;1.27;1.17;;;;;;;;;;5105921;28;20223;-77
2023/08/09 09:20:47;;;;;;;1.20;1.10;;;;;;;;;;5096826;28;20258;-77
2023/08/09 09:23:25;;;;;;;1.47;1.10;;;;;;;;;;5105463;28;20301;-78
2023/08/09 09:26:02;;;;;;;1.03;1.03;;;;;;;;;;5106761;28;20202;-77
2023/08/09 09:28:29;;;;;;;1.90;0.87;;;;;;;;;;5106044;28;20195;-77
2023/08/09 09:30:59;;;;;;;2.50;1.10;;;;;;;;;;5114053;28;20573;-77
2023/08/09 09:33:33;;;;;;;0.90;0.90;;;;;;;;;;5114598;28;20203;-77
2023/08/09 09:36:00;;;;;;;1.00;1.00;;;;;;;;;;5095291;28;20623;-77
2023/08/09 09:38:28;;;;;;;1.00;1.00;;;;;;;;;;5105864;28;20230;-77
2023/08/09 09:40:57;;;;;;;0.83;0.83;;;;;;;;;;5094272;28;20196;-77
2023/08/09 09:43:25;;;;;;;1.53;1.10;;;;;;;;;;5108334;28;20703;-77
2023/08/09 09:45:54;;;;;;;0.87;0.87;;;;;;;;;;5105285;28;20199;-77
2023/08/09 09:48:24;;;;;;;0.80;0.80;;;;;;;;;;5096187;28;20635;-77
2023/08/09 09:50:51;;;;;;;1.00;1.00;;;;;;;;;;5114380;28;20195;-77
2023/08/09 09:53:19;;;;;;;0.90;0.90;;;;;;;;;;5112219;28;20226;-77
2023/08/09 09:55:46;;;;;;;1.10;1.00;;;;;;;;;;5103003;28;20203;-78
2023/08/09 09:58:13;;;;;;;0.97;0.97;;;;;;;;;;5110878;28;20560;-76
2023/08/09 10:00:46;;;;;;;1.00;1.00;;;;;;;;;;5093858;28;20585;-77
2023/08/09 10:03:14;;;;;;;0.87;0.87;;;;;;;;;;5111691;28;20223;-77
2023/08/09 10:05:41;;;;;;;1.00;1.00;;;;;;;;;;5103574;28;20200;-77
2023/08/09 10:08:10;;;;;;;0.98;0.98;;;;;;;;;;5106439;28;20207;-78
2023/08/09 10:10:38;;;;;;;0.90;0.90;;;;;;;;;;5093436;28;20203;-77
2023/08/09 10:13:07;;;;;;;1.00;1.00;;;;;;;;;;5107138;28;20188;-77
2023/08/09 10:15:36;;;;;;;0.88;0.88;;;;;;;;;;5106032;28;20204;-77
2023/08/09 10:18:10;;;;;;;1.10;1.00;;;;;;;;;;5113255;28;20225;-77
2023/08/09 10:20:37;;;;;;;1.38;1.00;;;;;;;;;;5100811;28;20200;-77
2023/08/09 10:23:04;;;;;;;1.02;0.82;;;;;;;;;;5100267;28;20579;-77
2023/08/09 10:25:44;;;;;;;0.80;0.80;;;;;;;;;;5099060;28;20196;-78
2023/08/09 10:28:11;;;;;;;0.80;0.80;;;;;;;;;;5104382;28;20200;-77
2023/08/09 10:30:45;;;;;;;0.90;0.90;;;;;;;;;;5107330;28;20203;-77
2023/08/09 10:33:18;;;;;;;0.82;0.82;;;;;;;;;;5102146;28;20673;-78
2023/08/09 10:35:47;;;;;;;0.88;0.88;;;;;;;;;;5113099;28;20227;-77
2023/08/09 10:38:15;;;;;;;0.80;0.80;;;;;;;;;;5112816;28;20211;-78
2023/08/09 10:40:43;;;;;;;1.10;1.00;;;;;;;;;;5099347;28;20191;-77
2023/08/09 10:43:13;;;;;;;1.00;1.00;;;;;;;;;;5100104;28;20200;-78
2023/08/09 10:45:40;;;;;;;0.93;0.93;;;;;;;;;;5110712;28;20188;-78
2023/08/09 10:48:26;;;;;;;0.90;0.90;;;;;;;;;;5099373;28;20200;-78
2023/08/09 10:51:03;;;;;;;1.27;1.17;;;;;;;;;;5092857;28;20203;-78
2023/08/09 10:53:30;;;;;;;1.00;1.00;;;;;;;;;;5109979;28;20214;-77
2023/08/09 10:55:58;;;;;;;0.90;0.90;;;;;;;;;;5112114;28;21302;-77
2023/08/09 10:58:28;;;;;;;0.80;0.80;;;;;;;;;;5097335;28;20648;-77
2023/08/09 11:00:55;;;;;;;0.88;0.88;;;;;;;;;;5101823;28;20208;-78
2023/08/09 11:03:24;;;;;;;0.90;0.90;;;;;;;;;;5096071;28;20195;-77
2023/08/09 11:05:52;;;;;;;0.80;0.80;;;;;;;;;;5101082;28;20287;-77
2023/08/09 11:08:19;;;;;;;0.90;0.90;;;;;;;;;;5111496;28;20195;-77
2023/08/09 11:10:48;;;;;;;0.80;0.80;;;;;;;;;;5112437;28;20582;-77
2023/08/09 11:13:18;;;;;;;0.90;0.90;;;;;;;;;;5098557;28;20227;-77
2023/08/09 11:15:45;;;;;;;1.10;1.10;;;;;;;;;;5099081;28;20296;-78
2023/08/09 11:18:12;;;;;;;0.90;0.90;;;;;;;;;;5097547;28;20230;-78
2023/08/09 11:20:40;;;;;;;1.10;1.00;;;;;;;;;;5098488;28;20201;-78
2023/08/09 11:23:08;;;;;;;1.00;0.95;;;;;;;;;;5099883;28;20214;-78
2023/08/09 11:25:35;;;;;;;3.65;0.98;;;;;;;;;;5112761;28;20191;-77
2023/08/09 11:28:05;;;;;;;1.63;1.00;;;;;;;;;;5100632;28;20547;-78
2023/08/09 11:30:32;;;;;;;1.30;1.20;;;;;;;;;;5112433;28;20219;-78
2023/08/09 11:33:01;;;;;;;1.40;0.90;;;;;;;;;;5102483;28;20200;-77
2023/08/09 11:35:39;;;;;;;8.90;1.20;;;;;;;;;;5091779;28;20204;-78
2023/08/09 11:38:09;;;;;;;1.05;1.05;;;;;;;;;;5102177;28;20676;-78
2023/08/09 11:40:43;;;;;;;1.13;0.90;;;;;;;;;;5095730;28;20196;-78
2023/08/09 11:43:12;;;;;;;0.93;0.93;;;;;;;;;;5091991;28;20201;-78
2023/08/09 11:45:50;;;;;;;1.00;1.00;;;;;;;;;;5097962;28;20249;-78
2023/08/09 11:48:30;;;;;;;0.98;0.90;;;;;;;;;;5100374;28;20211;-78
2023/08/09 11:51:05;;;;;;;0.90;0.80;;;;;;;;;;5101709;28;20226;-78
2023/08/09 11:53:35;;;;;;;1.00;1.00;;;;;;;;;;5105663;28;20265;-78
2023/08/09 11:56:04;;;;;;;2.67;1.10;;;;;;;;;;5100581;28;20191;-78
2023/08/09 11:58:33;;;;;;;1.65;0.90;;;;;;;;;;5111447;28;20222;-77
2023/08/09 12:01:00;;;;;;;0.95;0.95;;;;;;;;;;5111608;28;20739;-78
2023/08/09 12:03:27;;;;;;;1.10;1.00;;;;;;;;;;5104936;28;20681;-77
2023/08/09 12:05:54;;;;;;;1.02;1.02;;;;;;;;;;5091525;28;20209;-78
2023/08/09 12:08:34;;;;;;;1.92;1.73;;;;;;;;;;5095867;28;20204;-78
2023/08/09 12:11:01;;;;;;;1.05;1.00;;;;;;;;;;5109418;28;20199;-78
2023/08/09 12:13:28;;;;;;;1.20;1.10;;;;;;;;;;5091615;28;21134;-77
2023/08/09 12:15:56;;;;;;;1.40;0.85;;;;;;;;;;5093321;28;20688;-78
2023/08/09 12:18:23;;;;;;;0.90;0.90;;;;;;;;;;5111212;28;20252;-78
2023/08/09 12:20:50;;;;;;;0.90;0.90;;;;;;;;;;5098076;28;20260;-78
2023/08/09 12:23:17;;;;;;;0.82;0.82;;;;;;;;;;5111701;28;20268;-78
2023/08/09 12:25:45;;;;;;;1.05;1.05;;;;;;;;;;5099807;28;20200;-78
2023/08/09 12:28:11;;;;;;;1.13;1.00;;;;;;;;;;5110877;28;20192;-78
2023/08/09 12:30:38;;;;;;;0.80;0.80;;;;;;;;;;5094910;28;20192;-78
2023/08/09 12:33:08;;;;;;;1.13;1.02;;;;;;;;;;5101251;28;20207;-77
2023/08/09 12:35:35;;;;;;;1.30;1.02;;;;;;;;;;5111583;28;20195;-78
2023/08/09 12:38:02;;;;;;;0.90;0.90;;;;;;;;;;5100961;28;20273;-77
2023/08/09 12:40:29;;;;;;;1.00;1.00;;;;;;;;;;5107602;28;20215;-77
2023/08/09 12:42:57;;;;;;;2.33;1.03;;;;;;;;;;5110953;28;20324;-78
2023/08/09 12:45:25;;;;;;;1.27;1.20;;;;;;;;;;5099285;28;20230;-77
2023/08/09 12:47:52;;;;;;;1.43;1.07;;;;;;;;;;5099815;28;20196;-78
2023/08/09 12:50:19;;;;;;;0.95;0.95;;;;;;;;;;5108977;28;20273;-78
2023/08/09 12:52:46;;;;;;;1.00;1.00;;;;;;;;;;5110819;28;20280;-78
2023/08/09 12:55:13;;;;;;;1.27;0.90;;;;;;;;;;5098424;28;20222;-77
2023/08/09 12:57:39;;;;;;;2.33;1.05;;;;;;;;;;5099481;28;20219;-77
2023/08/09 13:00:12;;;;;;;1.20;1.10;;;;;;;;;;5104420;28;20227;-78
2023/08/09 13:02:39;;;;;;;0.82;0.82;;;;;;;;;;5090988;28;20219;-79
2023/08/09 13:05:08;;;;;;;5.03;1.00;;;;;;;;;;5096981;28;20195;-78
2023/08/09 13:07:35;;;;;;;1.30;1.20;;;;;;;;;;5097823;28;20254;-78
2023/08/09 13:10:02;;;;;;;1.17;1.17;;;;;;;;;;5097795;28;20578;-78
2023/08/09 13:12:29;;;;;;;1.17;1.10;;;;;;;;;;5096837;28;20200;-78
2023/08/09 13:14:56;;;;;;;1.10;1.00;;;;;;;;;;5090862;28;20200;-78
2023/08/09 13:17:24;;;;;;;3.80;1.10;;;;;;;;;;5104493;28;20199;-78
2023/08/09 13:19:52;;;;;;;4.45;1.10;;;;;;;;;;5099298;28;20752;-78
2023/08/09 13:22:18;;;;;;;1.10;1.00;;;;;;;;;;5114354;28;20199;-78
2023/08/09 13:24:46;;;;;;;1.10;1.10;;;;;;;;;;5106462;28;20620;-78
2023/08/09 13:27:13;;;;;;;1.98;1.02;;;;;;;;;;5105139;28;20191;-79
2023/08/09 13:29:40;;;;;;;1.70;1.60;;;;;;;;;;5094144;28;20200;-78
2023/08/09 13:32:07;;;;;;;1.45;1.35;;;;;;;;;;5094014;28;20208;-78
2023/08/09 13:34:35;;;;;;;1.00;1.00;;;;;;;;;;5102074;28;20688;-78
2023/08/09 13:37:02;;;;;;;1.38;1.10;;;;;;;;;;5112454;28;20628;-78
2023/08/09 13:39:30;;;;;;;4.40;0.95;;;;;;;;;;5101567;28;20222;-78
2023/08/09 13:41:56;;;;;;;1.70;1.00;;;;;;;;;;5100214;28;20679;-78
2023/08/09 13:44:24;;;;;;;1.00;1.00;;;;;;;;;;5104630;28;20262;-78
2023/08/09 13:46:51;;;;;;;1.25;1.05;;;;;;;;;;5096223;28;20196;-78
2023/08/09 13:49:17;;;;;;;1.48;1.17;;;;;;;;;;5114285;28;20210;-79
2023/08/09 13:51:46;;;;;;;0.90;0.90;;;;;;;;;;5113018;28;20192;-79
2023/08/09 13:54:13;;;;;;;1.10;1.00;;;;;;;;;;5103415;28;20219;-79
2023/08/09 13:56:40;;;;;;;0.85;0.85;;;;;;;;;;5110207;28;20200;-78
2023/08/09 13:59:07;;;;;;;0.73;0.73;;;;;;;;;;5093541;28;20227;-79
2023/08/09 14:01:34;;;;;;;0.93;0.93;;;;;;;;;;5110354;28;20195;-78
2023/08/09 14:04:01;;;;;;;1.10;1.10;;;;;;;;;;5113993;28;20200;-78
2023/08/09 14:06:28;;;;;;;1.17;1.08;;;;;;;;;;5098960;28;20197;-78
2023/08/09 14:08:56;;;;;;;2.35;1.30;;;;;;;;;;5103564;28;20199;-78
2023/08/09 14:11:23;;;;;;;1.10;1.00;;;;;;;;;;5103967;28;20287;-79
2023/08/09 14:13:50;;;;;;;1.10;1.10;;;;;;;;;;5108413;28;20203;-79
2023/08/09 14:16:17;;;;;;;1.25;1.15;;;;;;;;;;5115396;28;20208;-79
2023/08/09 14:18:44;;;;;;;2.38;1.00;;;;;;;;;;5114412;28;20202;-78
2023/08/09 14:21:11;;;;;;;1.13;1.13;;;;;;;;;;5114409;28;20199;-78
2023/08/09 14:23:37;;;;;;;1.85;1.75;;;;;;;;;;5114095;28;20195;-78
2023/08/09 14:26:05;;;;;;;6.05;2.33;;;;;;;;;;5114544;28;20210;-78
2023/08/09 14:28:32;;;;;;;10.73;2.00;;;;;;;;;;5114779;28;20218;-78
2023/08/09 14:30:59;;;;;;;3.80;1.75;;;;;;;;;;5113760;28;20195;-78
2023/08/09 14:33:27;;;;;;;1.55;1.40;;;;;;;;;;5114900;28;20219;-78
2023/08/09 14:35:54;;;;;;;2.47;1.37;;;;;;;;;;5114383;28;20212;-78
2023/08/09 14:38:20;;;;;;;1.83;1.10;;;;;;;;;;5114196;28;20203;-79
2023/08/09 14:40:47;;;;;;;2.72;0.80;;;;;;;;;;5114483;28;20230;-78
2023/08/09 14:43:16;;;;;;;1.70;1.00;;;;;;;;;;5113955;28;20252;-78
2023/08/09 14:45:43;;;;;;;3.57;1.10;;;;;;;;;;5114110;28;20199;-78
2023/08/09 14:48:10;;;;;;;1.00;1.00;;;;;;;;;;5114925;28;20199;-79